createdAt,value
2019-03-28T00:02:01.142Z,8.48
2019-03-28T00:04:27.246Z,8.95
2019-03-28T00:06:53.477Z,8.58
2019-03-28T00:09:19.884Z,9.60
2019-03-28T00:11:46.217Z,8.83
2019-03-28T00:14:12.574Z,8.80
2019-03-28T00:16:38.766Z,8.60
2019-03-28T00:19:05.135Z,9.58
2019-03-28T00:21:31.351Z,9.05
2019-03-28T00:23:59.372Z,8.30
2019-03-28T00:26:30.393Z,8.55
2019-03-28T00:28:53.631Z,8.80
2019-03-28T00:31:21.405Z,9.03
2019-03-28T00:33:47.847Z,8.93
2019-03-28T00:36:13.997Z,9.50
2019-03-28T00:38:40.190Z,9.15
2019-03-28T00:41:06.439Z,9.13
2019-03-28T00:43:32.661Z,9.53
2019-03-28T00:45:58.795Z,9.15
2019-03-28T00:48:24.967Z,10.75
2019-03-28T00:50:51.116Z,10.45
2019-03-28T00:53:17.343Z,10.78
2019-03-28T00:55:43.527Z,10.48
2019-03-28T00:58:09.699Z,10.60
2019-03-28T01:00:36.055Z,11.53
2019-03-28T01:03:02.324Z,11.78
2019-03-28T01:05:29.589Z,11.12
2019-03-28T01:07:55.768Z,11.43
2019-03-28T01:10:22.219Z,10.48
2019-03-28T01:12:48.564Z,12.07
2019-03-28T01:15:14.732Z,12.33
2019-03-28T01:17:40.946Z,10.80
2019-03-28T01:20:07.906Z,12.30
2019-03-28T01:22:34.235Z,12.63
2019-03-28T01:25:00.437Z,11.50
2019-03-28T01:27:26.634Z,11.48
2019-03-28T01:29:52.755Z,11.35
2019-03-28T01:32:18.924Z,13.15
2019-03-28T01:34:45.147Z,12.50
2019-03-28T01:37:11.311Z,12.95
2019-03-28T01:39:37.475Z,11.70
2019-03-28T01:42:03.697Z,11.97
2019-03-28T01:44:29.790Z,11.30
2019-03-28T01:46:56.033Z,11.57
2019-03-28T01:49:22.196Z,11.30
2019-03-28T01:51:48.394Z,11.55
2019-03-28T01:54:14.532Z,11.05
2019-03-28T01:56:40.757Z,12.05
2019-03-28T01:59:06.857Z,12.45
2019-03-28T02:01:33.202Z,11.53
2019-03-28T02:03:59.302Z,12.85
2019-03-28T02:06:25.534Z,12.58
2019-03-28T02:08:51.800Z,13.58
2019-03-28T02:11:18.067Z,13.65
2019-03-28T02:13:44.374Z,13.22
2019-03-28T02:16:10.563Z,12.90
2019-03-28T02:18:36.881Z,13.25
2019-03-28T02:21:03.090Z,13.25
2019-03-28T02:23:29.250Z,12.78
2019-03-28T02:25:55.462Z,14.55
2019-03-28T02:28:21.578Z,14.85
2019-03-28T02:30:47.780Z,13.62
2019-03-28T02:33:14.902Z,14.90
2019-03-28T02:35:41.156Z,13.90
2019-03-28T02:38:07.280Z,13.03
2019-03-28T02:40:33.497Z,14.85
2019-03-28T02:42:59.617Z,14.13
2019-03-28T02:45:25.807Z,15.80
2019-03-28T02:47:52.131Z,14.65
2019-03-28T02:50:18.306Z,15.63
2019-03-28T02:52:44.459Z,13.90
2019-03-28T02:55:10.817Z,16.17
2019-03-28T02:57:41.635Z,15.85
2019-03-28T03:00:06.076Z,17.20
2019-03-28T03:02:32.902Z,16.02
2019-03-28T03:04:59.039Z,16.57
2019-03-28T03:07:25.351Z,15.20
2019-03-28T03:09:51.592Z,16.17
2019-03-28T03:12:17.993Z,15.70
2019-03-28T03:14:44.090Z,15.18
2019-03-28T03:17:10.342Z,14.13
2019-03-28T03:19:36.435Z,14.75
2019-03-28T03:22:03.124Z,14.20
2019-03-28T03:24:29.365Z,14.18
2019-03-28T03:26:55.597Z,14.68
2019-03-28T03:29:21.697Z,14.70
2019-03-28T03:31:47.904Z,14.78
2019-03-28T03:34:14.020Z,13.85
2019-03-28T03:36:40.246Z,14.05
2019-03-28T03:39:07.271Z,14.20
2019-03-28T03:41:33.592Z,16.90
2019-03-28T03:43:59.758Z,14.93
2019-03-28T03:46:25.922Z,13.70
2019-03-28T03:48:52.068Z,15.95
2019-03-28T03:51:18.318Z,14.50
2019-03-28T03:53:44.411Z,12.85
2019-03-28T03:56:10.661Z,16.27
2019-03-28T03:58:36.844Z,21.77
2019-03-28T04:01:03.089Z,15.75
2019-03-28T04:03:29.650Z,21.95
2019-03-28T04:05:56.206Z,19.05
2019-03-28T04:08:22.501Z,19.15
2019-03-28T04:10:48.654Z,14.43
2019-03-28T04:13:14.884Z,20.17
2019-03-28T04:15:41.183Z,18.70
2019-03-28T04:18:07.364Z,18.37
2019-03-28T04:20:33.529Z,18.70
2019-03-28T04:22:59.786Z,14.33
2019-03-28T04:25:25.895Z,14.15
2019-03-28T04:27:52.113Z,14.33
2019-03-28T04:30:18.477Z,14.63
2019-03-28T04:32:44.728Z,15.68
2019-03-28T04:35:10.982Z,16.15
2019-03-28T04:37:37.164Z,18.85
2019-03-28T04:40:05.862Z,19.67
2019-03-28T04:42:32.055Z,17.42
2019-03-28T04:44:58.235Z,16.65
2019-03-28T04:47:24.390Z,16.23
2019-03-28T04:49:50.735Z,16.87
2019-03-28T04:52:16.928Z,17.05
2019-03-28T04:54:43.219Z,14.98
2019-03-28T04:57:09.414Z,14.93
2019-03-28T04:59:35.778Z,18.27
2019-03-28T05:02:03.743Z,16.50
2019-03-28T05:04:30.284Z,18.07
2019-03-28T05:06:56.539Z,17.77
2019-03-28T05:09:23.366Z,19.07
2019-03-28T05:11:49.854Z,20.92
2019-03-28T05:14:16.117Z,19.82
2019-03-28T05:16:42.393Z,20.80
2019-03-28T05:19:08.661Z,23.30
2019-03-28T05:21:34.810Z,20.80
2019-03-28T05:24:01.053Z,20.00
2019-03-28T05:26:27.212Z,23.40
2019-03-28T05:28:57.868Z,20.80
2019-03-28T05:31:21.640Z,20.50
2019-03-28T05:33:47.828Z,21.17
2019-03-28T05:36:13.993Z,21.48
2019-03-28T05:38:40.224Z,17.75
2019-03-28T05:41:06.414Z,19.40
2019-03-28T05:43:32.856Z,22.17
2019-03-28T05:46:00.146Z,20.80
2019-03-28T05:48:26.311Z,26.65
2019-03-28T05:50:52.617Z,25.90
2019-03-28T05:53:18.810Z,31.60
2019-03-28T05:55:45.081Z,27.32
2019-03-28T05:58:11.282Z,27.15
2019-03-28T06:00:39.033Z,17.62
2019-03-28T06:03:07.521Z,20.40
2019-03-28T06:05:33.678Z,29.37
2019-03-28T06:07:59.847Z,38.40
2019-03-28T06:10:26.001Z,38.20
2019-03-28T06:12:52.234Z,27.82
2019-03-28T06:15:18.340Z,27.20
2019-03-28T06:17:44.693Z,25.60
2019-03-28T06:20:11.296Z,24.40
2019-03-28T06:22:37.621Z,27.25
2019-03-28T06:25:05.875Z,29.40
2019-03-28T06:27:32.175Z,29.23
2019-03-28T06:29:58.345Z,32.73
2019-03-28T06:32:24.547Z,35.10
2019-03-28T06:34:50.692Z,24.55
2019-03-28T06:37:16.868Z,27.95
2019-03-28T06:39:43.030Z,27.95
2019-03-28T06:42:09.204Z,22.40
2019-03-28T06:44:35.385Z,24.82
2019-03-28T06:47:01.578Z,23.38
2019-03-28T06:49:27.786Z,32.70
2019-03-28T06:51:54.034Z,29.67
2019-03-28T06:54:20.174Z,26.87
2019-03-28T06:56:46.367Z,28.85
2019-03-28T06:59:13.522Z,34.08
2019-03-28T07:01:39.699Z,28.92
2019-03-28T07:04:05.865Z,31.27
2019-03-28T07:06:32.093Z,38.05
2019-03-28T07:08:58.453Z,45.90
2019-03-28T07:11:24.662Z,35.30
2019-03-28T07:13:50.775Z,36.23
2019-03-28T07:16:16.998Z,41.08
2019-03-28T07:18:43.094Z,32.80
2019-03-28T07:21:09.299Z,34.53
2019-03-28T07:23:35.406Z,43.20
2019-03-28T07:26:01.621Z,42.13
2019-03-28T07:28:27.775Z,36.08
2019-03-28T07:30:53.952Z,39.80
2019-03-28T07:33:20.303Z,49.10
2019-03-28T07:35:46.456Z,37.20
2019-03-28T07:38:12.722Z,32.10
2019-03-28T07:40:38.998Z,30.85
2019-03-28T07:43:05.161Z,30.15
2019-03-28T07:45:34.331Z,28.52
2019-03-28T07:47:59.471Z,25.45
2019-03-28T07:50:25.758Z,31.25
2019-03-28T07:52:52.083Z,20.20
2019-03-28T07:55:18.312Z,17.30
2019-03-28T07:57:44.577Z,21.70
2019-03-28T08:00:14.200Z,21.65
2019-03-28T08:02:40.517Z,22.30
2019-03-28T08:05:08.766Z,16.32
2019-03-28T08:07:44.864Z,19.65
2019-03-28T08:10:06.341Z,16.12
2019-03-28T08:12:32.726Z,17.82
2019-03-28T08:14:58.884Z,17.75
2019-03-28T08:17:25.076Z,18.95
2019-03-28T08:19:51.270Z,21.07
2019-03-28T08:22:17.436Z,16.10
2019-03-28T08:24:43.597Z,18.40
2019-03-28T08:27:09.752Z,17.85
2019-03-28T08:29:35.929Z,15.28
2019-03-28T08:32:04.107Z,15.23
2019-03-28T08:34:31.395Z,15.03
2019-03-28T08:36:59.023Z,13.83
2019-03-28T08:39:26.098Z,12.55
2019-03-28T08:41:52.256Z,13.20
2019-03-28T08:44:22.473Z,13.70
2019-03-28T08:46:47.671Z,15.70
2019-03-28T08:49:13.963Z,17.05
2019-03-28T08:51:40.167Z,15.38
2019-03-28T08:54:06.378Z,15.68
2019-03-28T08:56:32.794Z,15.18
2019-03-28T08:58:59.020Z,11.48
2019-03-28T09:01:25.473Z,16.52
2019-03-28T09:03:51.689Z,17.15
2019-03-28T09:06:17.852Z,14.80
2019-03-28T09:08:44.066Z,17.10
2019-03-28T09:11:10.333Z,15.25
2019-03-28T09:13:36.498Z,15.95
2019-03-28T09:16:02.967Z,14.55
2019-03-28T09:18:29.138Z,14.58
2019-03-28T09:20:55.516Z,15.78
2019-03-28T09:23:21.695Z,15.90
2019-03-28T09:25:47.879Z,14.95
2019-03-28T09:28:14.112Z,23.10
2019-03-28T09:30:48.772Z,16.60
2019-03-28T09:33:09.925Z,16.42
2019-03-28T09:35:36.275Z,14.90
2019-03-28T09:38:03.056Z,15.63
2019-03-28T09:40:29.159Z,14.53
2019-03-28T09:42:55.479Z,16.17
2019-03-28T09:45:21.660Z,17.57
2019-03-28T09:47:47.834Z,15.32
2019-03-28T09:50:14.087Z,16.25
2019-03-28T09:52:40.253Z,17.80
2019-03-28T09:55:06.679Z,17.90
2019-03-28T09:57:33.122Z,18.30
2019-03-28T09:59:59.358Z,20.12
2019-03-28T10:02:25.517Z,21.70
2019-03-28T10:04:51.722Z,20.08
2019-03-28T10:07:19.019Z,22.52
2019-03-28T10:09:45.640Z,19.57
2019-03-28T10:12:11.854Z,18.17
2019-03-28T10:14:38.052Z,20.02
2019-03-28T10:17:04.159Z,19.62
2019-03-28T10:19:31.458Z,23.10
2019-03-28T10:21:57.637Z,18.30
2019-03-28T10:24:23.849Z,25.92
2019-03-28T10:26:50.025Z,21.42
2019-03-28T10:29:16.308Z,21.95
2019-03-28T10:31:42.691Z,23.10
2019-03-28T10:34:08.919Z,23.45
2019-03-28T10:36:35.129Z,18.75
2019-03-28T10:39:01.384Z,20.10
2019-03-28T10:41:29.540Z,21.68
2019-03-28T10:43:55.752Z,24.80
2019-03-28T10:46:22.011Z,30.95
2019-03-28T10:48:48.225Z,21.95
2019-03-28T10:51:14.441Z,27.55
2019-03-28T10:53:40.679Z,28.87
2019-03-28T10:56:20.501Z,26.55
2019-03-28T10:58:35.321Z,28.05
2019-03-28T11:01:01.612Z,23.57
2019-03-28T11:03:27.875Z,20.15
2019-03-28T11:05:54.092Z,19.73
2019-03-28T11:08:20.191Z,21.27
2019-03-28T11:10:46.396Z,22.48
2019-03-28T11:13:12.606Z,20.35
2019-03-28T11:15:38.841Z,22.75
2019-03-28T11:18:06.113Z,22.10
2019-03-28T11:20:33.508Z,19.98
2019-03-28T11:23:02.205Z,23.55
2019-03-28T11:25:27.837Z,23.47
2019-03-28T11:27:53.994Z,21.62
2019-03-28T11:30:20.456Z,22.70
2019-03-28T11:32:46.556Z,22.48
2019-03-28T11:35:13.017Z,19.98
2019-03-28T11:37:39.228Z,22.82
2019-03-28T11:40:09.200Z,23.27
2019-03-28T11:42:34.898Z,21.23
2019-03-28T11:45:01.341Z,23.02
2019-03-28T11:47:28.903Z,20.80
2019-03-28T11:49:55.854Z,24.10
2019-03-28T11:52:22.234Z,23.30
2019-03-28T11:54:48.458Z,22.98
2019-03-28T11:57:15.970Z,24.27
2019-03-28T11:59:42.424Z,20.20
2019-03-28T12:02:19.561Z,24.95
2019-03-28T12:04:38.831Z,23.18
2019-03-28T12:07:05.050Z,25.08
2019-03-28T12:09:31.348Z,24.67
2019-03-28T12:11:57.510Z,24.90
2019-03-28T12:14:23.730Z,27.55
2019-03-28T12:16:49.888Z,27.32
2019-03-28T12:19:17.735Z,28.47
2019-03-28T12:21:44.722Z,27.52
2019-03-28T12:24:10.882Z,31.37
2019-03-28T12:26:37.106Z,28.92
2019-03-28T12:29:05.785Z,32.83
2019-03-28T12:31:33.247Z,31.15
2019-03-28T12:33:59.491Z,34.27
2019-03-28T12:36:25.695Z,29.00
2019-03-28T12:38:51.873Z,29.95
2019-03-28T12:41:18.112Z,30.00
2019-03-28T12:43:44.345Z,26.77
2019-03-28T12:46:10.546Z,28.02
2019-03-28T12:48:36.736Z,28.62
2019-03-28T12:51:02.931Z,28.92
2019-03-28T12:53:29.146Z,32.13
2019-03-28T12:55:55.255Z,29.10
2019-03-28T12:58:22.423Z,31.35
2019-03-28T13:00:48.654Z,30.97
2019-03-28T13:03:14.846Z,28.20
2019-03-28T13:05:41.059Z,29.30
2019-03-28T13:08:07.371Z,26.27
2019-03-28T13:10:33.774Z,27.27
2019-03-28T13:12:59.993Z,27.75
2019-03-28T13:15:26.101Z,28.47
2019-03-28T13:17:52.303Z,28.60
2019-03-28T13:20:21.951Z,28.12
2019-03-28T13:22:46.629Z,26.17
2019-03-28T13:25:12.959Z,51.90
2019-03-28T13:27:39.095Z,97.25
2019-03-28T13:30:10.486Z,48.13
2019-03-28T13:32:42.222Z,49.75
2019-03-28T13:35:06.850Z,36.50
2019-03-28T13:37:33.962Z,36.28
2019-03-28T13:40:00.353Z,34.00
2019-03-28T13:42:26.411Z,35.52
2019-03-28T13:44:52.594Z,34.08
2019-03-28T13:47:18.770Z,34.43
2019-03-28T13:49:44.904Z,34.78
2019-03-28T13:52:11.062Z,35.90
2019-03-28T13:54:37.289Z,37.65
2019-03-28T13:57:03.517Z,33.23
2019-03-28T13:59:29.634Z,31.20
2019-03-28T14:01:55.824Z,35.95
2019-03-28T14:04:21.971Z,33.33
2019-03-28T14:06:48.210Z,34.95
2019-03-28T14:09:14.467Z,35.45
2019-03-28T14:11:40.754Z,32.93
2019-03-28T14:14:07.033Z,31.57
2019-03-28T14:16:33.590Z,34.35
2019-03-28T14:18:59.868Z,33.60
2019-03-28T14:21:26.075Z,31.97
2019-03-28T14:23:52.242Z,31.93
2019-03-28T14:26:18.490Z,34.20
2019-03-28T14:28:44.739Z,36.65
2019-03-28T14:31:10.955Z,34.18
2019-03-28T14:33:37.261Z,31.37
2019-03-28T14:36:03.359Z,32.33
2019-03-28T14:38:31.675Z,35.45
2019-03-28T14:40:58.456Z,34.25
2019-03-28T14:43:25.912Z,34.10
2019-03-28T14:45:52.190Z,34.90
2019-03-28T14:48:18.341Z,33.98
2019-03-28T14:50:44.678Z,34.53
2019-03-28T14:53:10.867Z,35.88
2019-03-28T14:55:38.353Z,33.18
2019-03-28T14:58:04.845Z,33.50
2019-03-28T15:00:47.116Z,35.20
2019-03-28T15:03:25.734Z,43.08
2019-03-28T15:05:44.148Z,25.65
2019-03-28T15:08:10.385Z,43.63
2019-03-28T15:10:36.619Z,34.67
2019-03-28T15:13:02.774Z,35.80
2019-03-28T15:15:29.042Z,35.13
2019-03-28T15:17:55.196Z,31.70
2019-03-28T15:20:21.524Z,33.83
2019-03-28T15:22:47.671Z,33.02
2019-03-28T15:25:14.017Z,28.47
2019-03-28T15:27:40.232Z,36.08
2019-03-28T15:30:07.719Z,37.80
2019-03-28T15:32:34.037Z,36.15
2019-03-28T15:35:00.327Z,32.28
2019-03-28T15:37:26.775Z,34.25
2019-03-28T15:39:52.942Z,32.35
2019-03-28T15:42:19.243Z,33.55
2019-03-28T15:44:45.620Z,31.15
2019-03-28T15:47:11.939Z,34.25
2019-03-28T15:49:38.211Z,33.88
2019-03-28T15:52:05.099Z,32.85
2019-03-28T15:54:31.615Z,33.05
2019-03-28T15:56:58.709Z,34.20
2019-03-28T15:59:25.083Z,32.65
2019-03-28T16:01:51.294Z,33.28
2019-03-28T16:04:17.569Z,35.15
2019-03-28T16:06:43.719Z,34.38
2019-03-28T16:09:09.956Z,29.72
2019-03-28T16:11:36.038Z,31.48
2019-03-28T16:14:02.271Z,30.52
2019-03-28T16:16:28.599Z,35.10
2019-03-28T16:18:55.160Z,32.40
2019-03-28T16:21:21.295Z,32.42
2019-03-28T16:23:47.468Z,29.77
2019-03-28T16:26:13.600Z,34.60
2019-03-28T16:28:40.794Z,31.12
2019-03-28T16:31:07.038Z,34.25
2019-03-28T16:33:33.446Z,33.00
2019-03-28T16:35:59.586Z,32.95
2019-03-28T16:38:25.801Z,31.73
2019-03-28T16:40:51.969Z,32.60
2019-03-28T16:43:18.162Z,28.65
2019-03-28T16:45:44.307Z,27.85
2019-03-28T16:48:10.462Z,29.10
2019-03-28T16:50:36.656Z,32.67
2019-03-28T16:53:03.022Z,126.42
2019-03-28T16:55:29.206Z,30.45
2019-03-28T16:57:55.484Z,28.75
2019-03-28T17:00:25.457Z,36.95
2019-03-28T17:02:51.726Z,38.93
2019-03-28T17:05:17.894Z,36.83
2019-03-28T17:07:44.311Z,42.20
2019-03-28T17:10:33.313Z,40.70
2019-03-28T17:12:59.593Z,35.17
2019-03-28T17:15:25.952Z,36.15
2019-03-28T17:17:53.382Z,78.20
2019-03-28T17:20:20.514Z,40.48
2019-03-28T17:22:46.836Z,40.43
2019-03-28T17:25:14.146Z,40.67
2019-03-28T17:27:40.507Z,40.00
2019-03-28T17:30:07.440Z,33.50
2019-03-28T17:32:38.793Z,39.13
2019-03-28T17:35:05.405Z,34.43
2019-03-28T17:37:31.821Z,39.70
2019-03-28T17:39:57.981Z,42.50
2019-03-28T17:42:24.245Z,42.25
2019-03-28T17:44:50.509Z,37.30
2019-03-28T17:47:16.724Z,25.70
2019-03-28T17:49:42.934Z,26.42
2019-03-28T17:52:09.299Z,25.70
2019-03-28T17:54:35.503Z,25.35
2019-03-28T17:57:01.761Z,29.05
2019-03-28T17:59:27.959Z,29.02
2019-03-28T18:01:54.199Z,22.70
2019-03-28T18:04:23.201Z,22.95
2019-03-28T18:06:49.227Z,28.87
2019-03-28T18:09:15.445Z,19.95
2019-03-28T18:11:41.776Z,29.82
2019-03-28T18:14:08.169Z,24.75
2019-03-28T18:16:34.422Z,28.92
2019-03-28T18:19:00.825Z,22.82
2019-03-28T18:21:26.939Z,27.00
2019-03-28T18:23:53.275Z,28.47
2019-03-28T18:26:19.427Z,49.38
2019-03-28T18:28:45.637Z,52.85
2019-03-28T18:31:12.828Z,27.05
2019-03-28T18:33:39.060Z,29.80
2019-03-28T18:36:05.285Z,25.30
2019-03-28T18:38:31.496Z,27.13
2019-03-28T18:40:57.606Z,28.90
2019-03-28T18:43:24.001Z,25.17
2019-03-28T18:45:50.153Z,23.73
2019-03-28T18:48:28.164Z,28.73
2019-03-28T18:50:45.554Z,24.37
2019-03-28T18:53:11.880Z,21.12
2019-03-28T18:55:38.275Z,26.50
2019-03-28T18:58:05.625Z,22.60
2019-03-28T19:00:32.973Z,20.92
2019-03-28T19:03:01.990Z,22.05
2019-03-28T19:05:29.074Z,27.00
2019-03-28T19:07:55.357Z,26.97
2019-03-28T19:10:21.566Z,22.82
2019-03-28T19:12:47.938Z,24.75
2019-03-28T19:15:14.486Z,27.40
2019-03-28T19:17:40.722Z,27.35
2019-03-28T19:20:08.212Z,17.67
2019-03-28T19:22:35.688Z,17.65
2019-03-28T19:25:04.287Z,15.40
2019-03-28T19:27:30.476Z,15.78
2019-03-28T19:29:56.629Z,12.53
2019-03-28T19:32:22.883Z,14.55
2019-03-28T19:34:49.065Z,14.35
2019-03-28T19:37:15.596Z,12.75
2019-03-28T19:39:41.783Z,14.90
2019-03-28T19:42:08.062Z,14.55
2019-03-28T19:44:34.738Z,15.43
2019-03-28T19:47:01.039Z,18.12
2019-03-28T19:49:27.251Z,15.20
2019-03-28T19:51:53.503Z,15.23
2019-03-28T19:54:19.631Z,14.20
2019-03-28T19:56:46.697Z,15.50
2019-03-28T19:59:12.922Z,14.25
2019-03-28T20:01:39.138Z,13.48
2019-03-28T20:04:05.331Z,13.68
2019-03-28T20:06:31.638Z,13.60
2019-03-28T20:08:57.805Z,14.15
2019-03-28T20:11:24.147Z,12.93
2019-03-28T20:13:50.508Z,13.25
2019-03-28T20:16:16.946Z,14.20
2019-03-28T20:18:43.310Z,15.15
2019-03-28T20:21:09.729Z,13.65
2019-03-28T20:23:36.088Z,15.15
2019-03-28T20:26:03.862Z,14.43
2019-03-28T20:28:30.521Z,14.28
2019-03-28T20:30:56.814Z,14.95
2019-03-28T20:33:25.069Z,14.95
2019-03-28T20:36:11.801Z,15.43
2019-03-28T20:38:19.457Z,15.75
2019-03-28T20:40:46.006Z,15.88
2019-03-28T20:43:12.239Z,16.65
2019-03-28T20:45:38.548Z,18.40
2019-03-28T20:48:05.710Z,17.50
2019-03-28T20:50:32.277Z,18.35
2019-03-28T20:52:58.501Z,19.00
2019-03-28T20:55:25.549Z,17.77
2019-03-28T20:57:53.190Z,20.23
2019-03-28T21:00:40.478Z,17.42
2019-03-28T21:03:07.275Z,19.30
2019-03-28T21:05:33.733Z,17.17
2019-03-28T21:07:59.964Z,17.85
2019-03-28T21:10:26.437Z,17.37
2019-03-28T21:12:53.250Z,16.57
2019-03-28T21:15:19.834Z,16.95
2019-03-28T21:17:46.353Z,14.63
2019-03-28T21:20:12.679Z,13.30
2019-03-28T21:22:39.110Z,13.48
2019-03-28T21:25:06.574Z,14.10
2019-03-28T21:27:33.149Z,12.95
2019-03-28T21:30:00.007Z,13.15
2019-03-28T21:32:26.306Z,13.80
2019-03-28T21:34:56.167Z,14.43
2019-03-28T21:37:20.607Z,15.13
2019-03-28T21:39:46.782Z,14.30
2019-03-28T21:42:13.056Z,12.75
2019-03-28T21:44:39.308Z,11.12
2019-03-28T21:47:05.565Z,13.20
2019-03-28T21:49:31.770Z,12.45
2019-03-28T21:51:57.990Z,12.73
2019-03-28T21:54:24.893Z,11.95
2019-03-28T21:56:51.130Z,11.97
2019-03-28T21:59:17.799Z,11.35
2019-03-28T22:01:44.088Z,11.25
2019-03-28T22:04:11.217Z,13.28
2019-03-28T22:06:42.886Z,11.75
2019-03-28T22:09:05.653Z,11.93
2019-03-28T22:11:33.898Z,10.63
2019-03-28T22:14:00.706Z,10.23
2019-03-28T22:16:27.846Z,11.45
2019-03-28T22:18:54.000Z,12.85
2019-03-28T22:21:20.165Z,11.45
2019-03-28T22:23:46.840Z,10.13
2019-03-28T22:26:12.986Z,10.88
2019-03-28T22:28:39.199Z,12.00
2019-03-28T22:31:05.362Z,11.03
2019-03-28T22:33:31.575Z,11.45
2019-03-28T22:35:57.784Z,11.18
2019-03-28T22:38:23.998Z,11.43
2019-03-28T22:40:50.148Z,11.65
2019-03-28T22:43:16.351Z,11.30
2019-03-28T22:45:43.810Z,12.45
2019-03-28T22:48:11.481Z,13.38
2019-03-28T22:50:39.310Z,12.33
2019-03-28T22:53:05.521Z,10.68
2019-03-28T22:55:31.614Z,14.13
2019-03-28T22:57:57.926Z,12.40
2019-03-28T23:00:26.185Z,11.15
2019-03-28T23:02:54.878Z,8.10
2019-03-28T23:05:21.324Z,11.28
2019-03-28T23:07:47.765Z,10.32
2019-03-28T23:10:14.453Z,9.50
2019-03-28T23:12:40.710Z,9.20
2019-03-28T23:15:07.726Z,8.68
2019-03-28T23:17:33.971Z,8.20
2019-03-28T23:20:00.349Z,8.85
2019-03-28T23:22:26.603Z,7.95
2019-03-28T23:24:52.835Z,9.10
2019-03-28T23:27:19.103Z,8.98
2019-03-28T23:29:45.357Z,8.43
2019-03-28T23:32:12.992Z,7.78
2019-03-28T23:34:39.592Z,8.90
2019-03-28T23:37:05.740Z,8.00
2019-03-28T23:39:31.939Z,8.63
2019-03-28T23:41:58.034Z,8.53
2019-03-28T23:44:24.241Z,8.93
2019-03-28T23:46:50.513Z,9.40
2019-03-28T23:49:16.751Z,10.40
2019-03-28T23:51:43.019Z,9.30
2019-03-28T23:54:09.529Z,10.48
2019-03-28T23:56:36.916Z,11.35
2019-03-28T23:59:03.610Z,11.08
